createdAt,value
2023-05-05T00:12:09.033Z,13.18
2023-05-05T00:32:09.031Z,13.06
2023-05-05T00:52:09.097Z,12.87
2023-05-05T01:12:13.176Z,12.93
2023-05-05T01:32:09.026Z,12.93
2023-05-05T01:52:09.022Z,13.00
2023-05-05T02:12:09.026Z,12.93
2023-05-05T02:32:08.924Z,13.00
2023-05-05T02:52:08.913Z,12.93
2023-05-05T03:12:08.926Z,13.06
2023-05-05T03:32:08.901Z,12.93
2023-05-05T03:52:08.899Z,13.00
2023-05-05T04:12:08.908Z,12.87
2023-05-05T04:32:08.907Z,12.87
2023-05-05T04:52:08.904Z,12.93
2023-05-05T05:12:08.903Z,12.81
2023-05-05T05:32:08.906Z,12.68
2023-05-05T05:52:08.899Z,12.93
2023-05-05T06:12:08.920Z,12.81
2023-05-05T06:32:08.790Z,12.93
2023-05-05T06:52:08.829Z,12.87
2023-05-05T07:12:08.795Z,13.06
2023-05-05T07:32:08.893Z,13.00
2023-05-05T07:52:08.818Z,13.00
2023-05-05T08:12:08.703Z,13.06
2023-05-05T08:32:08.706Z,13.18
2023-05-05T08:52:08.702Z,13.18
2023-05-05T09:12:08.669Z,13.25
2023-05-05T09:32:08.616Z,13.12
2023-05-05T09:52:08.655Z,13.25
2023-05-05T10:12:08.652Z,13.37
2023-05-05T10:32:08.542Z,13.18
2023-05-05T10:52:08.546Z,13.25
2023-05-05T11:12:08.524Z,13.87
2023-05-05T11:32:08.480Z,14.06
2023-05-05T11:52:08.467Z,13.93
2023-05-05T12:12:08.367Z,13.75
2023-05-05T12:32:08.428Z,13.56
2023-05-05T12:52:08.388Z,13.81
2023-05-05T13:12:08.302Z,13.68
2023-05-05T13:32:08.336Z,14.12
2023-05-05T13:52:08.244Z,13.75
2023-05-05T14:12:08.235Z,13.81
2023-05-05T14:32:08.255Z,13.81
2023-05-05T14:52:08.172Z,13.81
2023-05-05T15:12:08.182Z,13.68
2023-05-05T15:32:08.089Z,13.81
2023-05-05T15:52:08.170Z,13.87
2023-05-05T16:12:08.113Z,13.81
2023-05-05T16:32:08.026Z,13.75
2023-05-05T16:52:08.090Z,13.81
2023-05-05T17:12:07.960Z,13.75
2023-05-05T17:32:08.047Z,13.81
2023-05-05T17:52:07.975Z,13.68
2023-05-05T18:12:07.889Z,13.75
2023-05-05T18:32:07.898Z,13.87
2023-05-05T18:52:07.914Z,13.87
2023-05-05T19:12:07.892Z,14.43
2023-05-05T19:32:07.837Z,14.06
2023-05-05T19:52:08.008Z,13.87
2023-05-05T20:12:07.981Z,13.68
2023-05-05T20:32:07.805Z,13.81
2023-05-05T20:52:07.950Z,13.87
2023-05-05T21:12:07.886Z,13.81
2023-05-05T21:32:07.851Z,13.62
2023-05-05T21:52:07.750Z,14.00
2023-05-05T22:12:07.644Z,14.00
2023-05-05T22:32:07.833Z,13.81
2023-05-05T22:52:07.782Z,13.93
2023-05-05T23:12:07.803Z,13.87
2023-05-05T23:32:07.815Z,13.93
2023-05-05T23:52:07.650Z,13.62
